sensor_id;sensor_type;location;lat;lon;timestamp;P1;durP1;ratioP1;P2;durP2;ratioP2
7150;SDS011;3617;48.836;9.172;2023-12-20T00:01:23;1.00;;;0.97;;
7150;SDS011;3617;48.836;9.172;2023-12-20T00:03:49;1.50;;;1.20;;
7150;SDS011;3617;48.836;9.172;2023-12-20T00:06:15;1.10;;;1.03;;
7150;SDS011;3617;48.836;9.172;2023-12-20T00:08:41;1.73;;;1.10;;
7150;SDS011;3617;48.836;9.172;2023-12-20T00:11:07;1.20;;;1.10;;
7150;SDS011;3617;48.836;9.172;2023-12-20T00:13:34;1.10;;;1.00;;
7150;SDS011;3617;48.836;9.172;2023-12-20T00:16:00;1.47;;;1.37;;
7150;SDS011;3617;48.836;9.172;2023-12-20T00:18:26;1.40;;;1.10;;
7150;SDS011;3617;48.836;9.172;2023-12-20T00:20:52;0.83;;;0.83;;
7150;SDS011;3617;48.836;9.172;2023-12-20T00:23:18;0.80;;;0.80;;
7150;SDS011;3617;48.836;9.172;2023-12-20T00:25:44;1.10;;;1.00;;
7150;SDS011;3617;48.836;9.172;2023-12-20T00:28:09;1.30;;;1.20;;
7150;SDS011;3617;48.836;9.172;2023-12-20T00:30:35;1.27;;;1.10;;
7150;SDS011;3617;48.836;9.172;2023-12-20T00:33:01;1.13;;;0.90;;
7150;SDS011;3617;48.836;9.172;2023-12-20T00:35:28;1.20;;;1.10;;
7150;SDS011;3617;48.836;9.172;2023-12-20T00:37:54;0.87;;;0.87;;
7150;SDS011;3617;48.836;9.172;2023-12-20T00:40:20;1.23;;;1.00;;
7150;SDS011;3617;48.836;9.172;2023-12-20T00:42:47;1.17;;;1.07;;
7150;SDS011;3617;48.836;9.172;2023-12-20T00:45:13;1.00;;;0.90;;
7150;SDS011;3617;48.836;9.172;2023-12-20T00:47:39;1.10;;;1.00;;
7150;SDS011;3617;48.836;9.172;2023-12-20T00:50:05;1.83;;;1.20;;
7150;SDS011;3617;48.836;9.172;2023-12-20T00:52:31;1.40;;;1.30;;
7150;SDS011;3617;48.836;9.172;2023-12-20T00:54:57;1.27;;;1.10;;
7150;SDS011;3617;48.836;9.172;2023-12-20T00:57:23;1.23;;;1.03;;
7150;SDS011;3617;48.836;9.172;2023-12-20T00:59:50;1.50;;;1.10;;
7150;SDS011;3617;48.836;9.172;2023-12-20T01:02:16;1.50;;;1.20;;
7150;SDS011;3617;48.836;9.172;2023-12-20T01:04:42;1.97;;;1.17;;
7150;SDS011;3617;48.836;9.172;2023-12-20T01:07:08;1.50;;;1.40;;
7150;SDS011;3617;48.836;9.172;2023-12-20T01:09:34;1.97;;;1.53;;
7150;SDS011;3617;48.836;9.172;2023-12-20T01:12:00;1.17;;;0.90;;
7150;SDS011;3617;48.836;9.172;2023-12-20T01:14:26;2.03;;;1.80;;
7150;SDS011;3617;48.836;9.172;2023-12-20T01:16:52;2.63;;;1.13;;
7150;SDS011;3617;48.836;9.172;2023-12-20T01:19:18;1.80;;;1.53;;
7150;SDS011;3617;48.836;9.172;2023-12-20T01:21:44;1.30;;;1.17;;
7150;SDS011;3617;48.836;9.172;2023-12-20T01:24:09;1.20;;;1.10;;
7150;SDS011;3617;48.836;9.172;2023-12-20T01:26:35;1.20;;;1.10;;
7150;SDS011;3617;48.836;9.172;2023-12-20T01:29:01;3.67;;;1.37;;
7150;SDS011;3617;48.836;9.172;2023-12-20T01:31:28;1.40;;;1.30;;
7150;SDS011;3617;48.836;9.172;2023-12-20T01:33:54;1.10;;;1.00;;
7150;SDS011;3617;48.836;9.172;2023-12-20T01:36:19;1.30;;;1.20;;
7150;SDS011;3617;48.836;9.172;2023-12-20T01:38:45;1.30;;;1.20;;
7150;SDS011;3617;48.836;9.172;2023-12-20T01:41:11;2.70;;;1.57;;
7150;SDS011;3617;48.836;9.172;2023-12-20T01:43:37;3.03;;;1.83;;
7150;SDS011;3617;48.836;9.172;2023-12-20T01:46:03;1.30;;;1.20;;
7150;SDS011;3617;48.836;9.172;2023-12-20T01:48:30;2.23;;;1.30;;
7150;SDS011;3617;48.836;9.172;2023-12-20T01:50:57;1.40;;;1.30;;
7150;SDS011;3617;48.836;9.172;2023-12-20T01:53:23;1.40;;;1.30;;
7150;SDS011;3617;48.836;9.172;2023-12-20T01:55:50;2.20;;;1.50;;
7150;SDS011;3617;48.836;9.172;2023-12-20T01:58:16;1.10;;;1.00;;
7150;SDS011;3617;48.836;9.172;2023-12-20T02:00:42;1.67;;;1.57;;
7150;SDS011;3617;48.836;9.172;2023-12-20T02:03:08;1.73;;;1.23;;
7150;SDS011;3617;48.836;9.172;2023-12-20T02:05:35;1.60;;;1.50;;
7150;SDS011;3617;48.836;9.172;2023-12-20T02:08:04;1.50;;;1.40;;
7150;SDS011;3617;48.836;9.172;2023-12-20T02:10:30;1.43;;;1.33;;
7150;SDS011;3617;48.836;9.172;2023-12-20T02:12:57;3.20;;;1.23;;
7150;SDS011;3617;48.836;9.172;2023-12-20T02:15:23;1.87;;;1.53;;
7150;SDS011;3617;48.836;9.172;2023-12-20T02:17:49;2.13;;;1.80;;
7150;SDS011;3617;48.836;9.172;2023-12-20T02:20:18;1.40;;;1.17;;
7150;SDS011;3617;48.836;9.172;2023-12-20T02:22:44;1.23;;;1.13;;
7150;SDS011;3617;48.836;9.172;2023-12-20T02:25:11;1.20;;;1.10;;
7150;SDS011;3617;48.836;9.172;2023-12-20T02:27:37;1.90;;;1.63;;
7150;SDS011;3617;48.836;9.172;2023-12-20T02:30:05;2.17;;;1.57;;
7150;SDS011;3617;48.836;9.172;2023-12-20T02:32:31;2.87;;;1.70;;
7150;SDS011;3617;48.836;9.172;2023-12-20T02:34:57;1.60;;;1.50;;
7150;SDS011;3617;48.836;9.172;2023-12-20T02:37:23;1.50;;;1.40;;
7150;SDS011;3617;48.836;9.172;2023-12-20T02:39:49;2.60;;;1.70;;
7150;SDS011;3617;48.836;9.172;2023-12-20T02:42:15;3.43;;;1.80;;
7150;SDS011;3617;48.836;9.172;2023-12-20T02:44:41;1.50;;;1.30;;
7150;SDS011;3617;48.836;9.172;2023-12-20T02:47:07;2.33;;;1.63;;
7150;SDS011;3617;48.836;9.172;2023-12-20T02:49:33;2.23;;;1.70;;
7150;SDS011;3617;48.836;9.172;2023-12-20T02:51:59;1.37;;;1.23;;
7150;SDS011;3617;48.836;9.172;2023-12-20T02:54:25;1.13;;;0.90;;
7150;SDS011;3617;48.836;9.172;2023-12-20T02:56:51;0.70;;;0.70;;
7150;SDS011;3617;48.836;9.172;2023-12-20T02:59:17;0.90;;;0.90;;
7150;SDS011;3617;48.836;9.172;2023-12-20T03:01:44;1.10;;;1.10;;
7150;SDS011;3617;48.836;9.172;2023-12-20T03:04:10;0.80;;;0.80;;
7150;SDS011;3617;48.836;9.172;2023-12-20T03:06:36;0.70;;;0.70;;
7150;SDS011;3617;48.836;9.172;2023-12-20T03:09:02;0.80;;;0.80;;
7150;SDS011;3617;48.836;9.172;2023-12-20T03:11:29;0.70;;;0.70;;
7150;SDS011;3617;48.836;9.172;2023-12-20T03:13:55;0.60;;;0.60;;
7150;SDS011;3617;48.836;9.172;2023-12-20T03:16:21;0.77;;;0.77;;
7150;SDS011;3617;48.836;9.172;2023-12-20T03:18:47;0.60;;;0.60;;
7150;SDS011;3617;48.836;9.172;2023-12-20T03:21:13;0.50;;;0.50;;
7150;SDS011;3617;48.836;9.172;2023-12-20T03:23:40;0.60;;;0.60;;
7150;SDS011;3617;48.836;9.172;2023-12-20T03:26:06;0.83;;;0.80;;
7150;SDS011;3617;48.836;9.172;2023-12-20T03:28:33;0.60;;;0.60;;
7150;SDS011;3617;48.836;9.172;2023-12-20T03:30:59;0.60;;;0.60;;
7150;SDS011;3617;48.836;9.172;2023-12-20T03:33:25;0.60;;;0.60;;
7150;SDS011;3617;48.836;9.172;2023-12-20T03:35:51;0.60;;;0.60;;
7150;SDS011;3617;48.836;9.172;2023-12-20T03:38:17;0.90;;;0.70;;
7150;SDS011;3617;48.836;9.172;2023-12-20T03:40:43;0.70;;;0.70;;
7150;SDS011;3617;48.836;9.172;2023-12-20T03:43:09;0.77;;;0.77;;
7150;SDS011;3617;48.836;9.172;2023-12-20T03:45:35;0.70;;;0.70;;
7150;SDS011;3617;48.836;9.172;2023-12-20T03:48:01;0.60;;;0.60;;
7150;SDS011;3617;48.836;9.172;2023-12-20T03:50:27;1.13;;;0.90;;
7150;SDS011;3617;48.836;9.172;2023-12-20T03:52:53;0.70;;;0.70;;
7150;SDS011;3617;48.836;9.172;2023-12-20T03:55:19;0.73;;;0.60;;
7150;SDS011;3617;48.836;9.172;2023-12-20T03:57:45;0.60;;;0.60;;
7150;SDS011;3617;48.836;9.172;2023-12-20T04:00:11;0.70;;;0.70;;
7150;SDS011;3617;48.836;9.172;2023-12-20T04:02:37;1.33;;;0.90;;
7150;SDS011;3617;48.836;9.172;2023-12-20T04:05:03;0.50;;;0.50;;
7150;SDS011;3617;48.836;9.172;2023-12-20T04:07:30;0.60;;;0.60;;
7150;SDS011;3617;48.836;9.172;2023-12-20T04:09:56;0.87;;;0.80;;
7150;SDS011;3617;48.836;9.172;2023-12-20T04:12:22;0.83;;;0.83;;
7150;SDS011;3617;48.836;9.172;2023-12-20T04:14:48;0.53;;;0.53;;
7150;SDS011;3617;48.836;9.172;2023-12-20T04:17:14;0.60;;;0.60;;
7150;SDS011;3617;48.836;9.172;2023-12-20T04:19:41;0.67;;;0.67;;
7150;SDS011;3617;48.836;9.172;2023-12-20T04:22:07;0.73;;;0.73;;
7150;SDS011;3617;48.836;9.172;2023-12-20T04:24:33;0.80;;;0.80;;
7150;SDS011;3617;48.836;9.172;2023-12-20T04:26:59;0.70;;;0.70;;
7150;SDS011;3617;48.836;9.172;2023-12-20T04:29:26;0.80;;;0.80;;
7150;SDS011;3617;48.836;9.172;2023-12-20T04:31:52;0.70;;;0.70;;
7150;SDS011;3617;48.836;9.172;2023-12-20T04:34:18;0.70;;;0.70;;
7150;SDS011;3617;48.836;9.172;2023-12-20T04:36:44;0.70;;;0.70;;
7150;SDS011;3617;48.836;9.172;2023-12-20T04:39:11;3.10;;;0.70;;
7150;SDS011;3617;48.836;9.172;2023-12-20T04:41:37;0.70;;;0.70;;
7150;SDS011;3617;48.836;9.172;2023-12-20T04:44:03;0.87;;;0.80;;
7150;SDS011;3617;48.836;9.172;2023-12-20T04:46:29;0.73;;;0.73;;
7150;SDS011;3617;48.836;9.172;2023-12-20T04:48:54;0.80;;;0.80;;
7150;SDS011;3617;48.836;9.172;2023-12-20T04:51:20;0.70;;;0.70;;
7150;SDS011;3617;48.836;9.172;2023-12-20T04:53:46;0.90;;;0.90;;
7150;SDS011;3617;48.836;9.172;2023-12-20T04:56:13;0.70;;;0.70;;
7150;SDS011;3617;48.836;9.172;2023-12-20T04:58:39;0.70;;;0.70;;
7150;SDS011;3617;48.836;9.172;2023-12-20T05:01:08;0.80;;;0.80;;
7150;SDS011;3617;48.836;9.172;2023-12-20T05:03:34;0.60;;;0.60;;
7150;SDS011;3617;48.836;9.172;2023-12-20T05:06:01;1.10;;;0.90;;
7150;SDS011;3617;48.836;9.172;2023-12-20T05:08:27;0.70;;;0.70;;
7150;SDS011;3617;48.836;9.172;2023-12-20T05:10:56;0.63;;;0.63;;
7150;SDS011;3617;48.836;9.172;2023-12-20T05:13:22;0.80;;;0.80;;
7150;SDS011;3617;48.836;9.172;2023-12-20T05:15:48;0.70;;;0.70;;
7150;SDS011;3617;48.836;9.172;2023-12-20T05:18:14;0.83;;;0.83;;
7150;SDS011;3617;48.836;9.172;2023-12-20T05:20:40;0.80;;;0.80;;
7150;SDS011;3617;48.836;9.172;2023-12-20T05:23:06;0.87;;;0.87;;
7150;SDS011;3617;48.836;9.172;2023-12-20T05:25:32;1.50;;;0.93;;
7150;SDS011;3617;48.836;9.172;2023-12-20T05:27:58;0.70;;;0.70;;
7150;SDS011;3617;48.836;9.172;2023-12-20T05:30:24;0.90;;;0.83;;
7150;SDS011;3617;48.836;9.172;2023-12-20T05:32:50;1.10;;;1.10;;
7150;SDS011;3617;48.836;9.172;2023-12-20T05:35:16;1.27;;;0.97;;
7150;SDS011;3617;48.836;9.172;2023-12-20T05:37:42;1.03;;;0.93;;
7150;SDS011;3617;48.836;9.172;2023-12-20T05:40:08;0.70;;;0.70;;
7150;SDS011;3617;48.836;9.172;2023-12-20T05:42:35;1.20;;;1.10;;
7150;SDS011;3617;48.836;9.172;2023-12-20T05:45:01;1.30;;;1.07;;
7150;SDS011;3617;48.836;9.172;2023-12-20T05:47:27;1.30;;;1.10;;
7150;SDS011;3617;48.836;9.172;2023-12-20T05:49:53;0.80;;;0.80;;
7150;SDS011;3617;48.836;9.172;2023-12-20T05:52:19;0.80;;;0.80;;
7150;SDS011;3617;48.836;9.172;2023-12-20T05:54:45;1.33;;;1.20;;
7150;SDS011;3617;48.836;9.172;2023-12-20T05:57:11;1.07;;;1.00;;
7150;SDS011;3617;48.836;9.172;2023-12-20T05:59:37;2.10;;;1.07;;
7150;SDS011;3617;48.836;9.172;2023-12-20T06:02:03;1.33;;;1.23;;
7150;SDS011;3617;48.836;9.172;2023-12-20T06:04:29;2.23;;;1.00;;
7150;SDS011;3617;48.836;9.172;2023-12-20T06:06:55;1.37;;;1.23;;
7150;SDS011;3617;48.836;9.172;2023-12-20T06:09:21;0.90;;;0.90;;
7150;SDS011;3617;48.836;9.172;2023-12-20T06:11:47;0.90;;;0.90;;
7150;SDS011;3617;48.836;9.172;2023-12-20T06:14:13;1.10;;;1.00;;
7150;SDS011;3617;48.836;9.172;2023-12-20T06:16:39;1.20;;;1.10;;
7150;SDS011;3617;48.836;9.172;2023-12-20T06:19:05;1.97;;;1.20;;
7150;SDS011;3617;48.836;9.172;2023-12-20T06:21:32;0.90;;;0.90;;
7150;SDS011;3617;48.836;9.172;2023-12-20T06:23:59;1.93;;;1.73;;
7150;SDS011;3617;48.836;9.172;2023-12-20T06:26:25;1.47;;;1.30;;
7150;SDS011;3617;48.836;9.172;2023-12-20T06:28:51;1.60;;;1.50;;
7150;SDS011;3617;48.836;9.172;2023-12-20T06:31:17;4.17;;;1.10;;
7150;SDS011;3617;48.836;9.172;2023-12-20T06:33:43;3.53;;;1.23;;
7150;SDS011;3617;48.836;9.172;2023-12-20T06:36:12;1.20;;;1.10;;
7150;SDS011;3617;48.836;9.172;2023-12-20T06:38:38;1.03;;;1.00;;
7150;SDS011;3617;48.836;9.172;2023-12-20T06:41:05;1.10;;;1.00;;
7150;SDS011;3617;48.836;9.172;2023-12-20T06:43:31;1.30;;;1.20;;
7150;SDS011;3617;48.836;9.172;2023-12-20T06:45:58;1.30;;;1.20;;
7150;SDS011;3617;48.836;9.172;2023-12-20T06:48:24;1.60;;;1.20;;
7150;SDS011;3617;48.836;9.172;2023-12-20T06:50:50;1.23;;;1.13;;
7150;SDS011;3617;48.836;9.172;2023-12-20T06:53:16;2.60;;;1.33;;
7150;SDS011;3617;48.836;9.172;2023-12-20T06:55:42;4.57;;;1.73;;
7150;SDS011;3617;48.836;9.172;2023-12-20T06:58:08;1.20;;;1.10;;
7150;SDS011;3617;48.836;9.172;2023-12-20T07:00:34;1.33;;;1.20;;
7150;SDS011;3617;48.836;9.172;2023-12-20T07:03:00;1.70;;;1.60;;
7150;SDS011;3617;48.836;9.172;2023-12-20T07:05:26;4.13;;;1.60;;
7150;SDS011;3617;48.836;9.172;2023-12-20T07:07:52;1.37;;;1.20;;
7150;SDS011;3617;48.836;9.172;2023-12-20T07:10:18;1.87;;;1.63;;
7150;SDS011;3617;48.836;9.172;2023-12-20T07:12:44;2.20;;;1.70;;
7150;SDS011;3617;48.836;9.172;2023-12-20T07:15:10;3.07;;;2.43;;
7150;SDS011;3617;48.836;9.172;2023-12-20T07:17:36;3.30;;;2.13;;
7150;SDS011;3617;48.836;9.172;2023-12-20T07:20:02;2.57;;;2.03;;
7150;SDS011;3617;48.836;9.172;2023-12-20T07:22:29;2.30;;;1.70;;
7150;SDS011;3617;48.836;9.172;2023-12-20T07:24:56;4.03;;;1.80;;
7150;SDS011;3617;48.836;9.172;2023-12-20T07:27:22;3.40;;;2.27;;
7150;SDS011;3617;48.836;9.172;2023-12-20T07:29:48;2.10;;;1.73;;
7150;SDS011;3617;48.836;9.172;2023-12-20T07:32:14;2.23;;;1.60;;
7150;SDS011;3617;48.836;9.172;2023-12-20T07:34:40;2.70;;;2.03;;
7150;SDS011;3617;48.836;9.172;2023-12-20T07:37:06;2.27;;;1.80;;
7150;SDS011;3617;48.836;9.172;2023-12-20T07:39:35;2.03;;;1.60;;
7150;SDS011;3617;48.836;9.172;2023-12-20T07:42:01;2.73;;;1.83;;
7150;SDS011;3617;48.836;9.172;2023-12-20T07:44:27;1.93;;;1.70;;
7150;SDS011;3617;48.836;9.172;2023-12-20T07:46:52;1.87;;;1.73;;
7150;SDS011;3617;48.836;9.172;2023-12-20T07:49:19;4.83;;;2.00;;
7150;SDS011;3617;48.836;9.172;2023-12-20T07:51:45;3.27;;;2.00;;
7150;SDS011;3617;48.836;9.172;2023-12-20T07:54:11;2.43;;;2.10;;
7150;SDS011;3617;48.836;9.172;2023-12-20T07:56:36;2.77;;;1.70;;
7150;SDS011;3617;48.836;9.172;2023-12-20T07:59:04;2.97;;;2.27;;
7150;SDS011;3617;48.836;9.172;2023-12-20T08:01:30;3.00;;;2.47;;
7150;SDS011;3617;48.836;9.172;2023-12-20T08:03:56;3.00;;;2.10;;
7150;SDS011;3617;48.836;9.172;2023-12-20T08:06:22;4.23;;;2.40;;
7150;SDS011;3617;48.836;9.172;2023-12-20T08:08:48;2.20;;;2.00;;
7150;SDS011;3617;48.836;9.172;2023-12-20T08:11:14;4.47;;;2.60;;
7150;SDS011;3617;48.836;9.172;2023-12-20T08:13:40;2.40;;;2.10;;
7150;SDS011;3617;48.836;9.172;2023-12-20T08:16:06;3.50;;;2.17;;
7150;SDS011;3617;48.836;9.172;2023-12-20T08:18:32;3.50;;;2.30;;
7150;SDS011;3617;48.836;9.172;2023-12-20T08:20:58;3.70;;;2.30;;
7150;SDS011;3617;48.836;9.172;2023-12-20T08:23:25;2.80;;;2.50;;
7150;SDS011;3617;48.836;9.172;2023-12-20T08:25:51;2.33;;;1.73;;
7150;SDS011;3617;48.836;9.172;2023-12-20T08:28:17;3.60;;;2.00;;
7150;SDS011;3617;48.836;9.172;2023-12-20T08:30:43;3.00;;;2.10;;
7150;SDS011;3617;48.836;9.172;2023-12-20T08:33:09;2.30;;;1.83;;
7150;SDS011;3617;48.836;9.172;2023-12-20T08:35:37;2.57;;;2.20;;
7150;SDS011;3617;48.836;9.172;2023-12-20T08:38:03;2.93;;;2.50;;
7150;SDS011;3617;48.836;9.172;2023-12-20T08:40:29;2.83;;;2.33;;
7150;SDS011;3617;48.836;9.172;2023-12-20T08:42:55;3.77;;;2.83;;
7150;SDS011;3617;48.836;9.172;2023-12-20T08:45:21;2.97;;;2.43;;
7150;SDS011;3617;48.836;9.172;2023-12-20T08:47:47;6.70;;;2.70;;
7150;SDS011;3617;48.836;9.172;2023-12-20T08:50:13;3.03;;;2.20;;
7150;SDS011;3617;48.836;9.172;2023-12-20T08:52:40;3.17;;;2.37;;
7150;SDS011;3617;48.836;9.172;2023-12-20T08:55:07;4.17;;;2.27;;
7150;SDS011;3617;48.836;9.172;2023-12-20T08:57:34;2.70;;;1.50;;
7150;SDS011;3617;48.836;9.172;2023-12-20T09:00:00;2.13;;;1.83;;
7150;SDS011;3617;48.836;9.172;2023-12-20T09:02:26;2.97;;;2.10;;
7150;SDS011;3617;48.836;9.172;2023-12-20T09:04:53;2.10;;;1.60;;
7150;SDS011;3617;48.836;9.172;2023-12-20T09:07:26;2.97;;;1.80;;
7150;SDS011;3617;48.836;9.172;2023-12-20T09:09:55;3.07;;;1.90;;
7150;SDS011;3617;48.836;9.172;2023-12-20T09:12:21;2.10;;;1.80;;
7150;SDS011;3617;48.836;9.172;2023-12-20T09:14:47;2.30;;;1.60;;
7150;SDS011;3617;48.836;9.172;2023-12-20T09:17:13;2.40;;;1.43;;
7150;SDS011;3617;48.836;9.172;2023-12-20T09:19:39;1.40;;;1.30;;
7150;SDS011;3617;48.836;9.172;2023-12-20T09:22:06;1.90;;;1.40;;
7150;SDS011;3617;48.836;9.172;2023-12-20T09:24:32;2.30;;;1.13;;
7150;SDS011;3617;48.836;9.172;2023-12-20T09:26:58;2.63;;;1.43;;
7150;SDS011;3617;48.836;9.172;2023-12-20T09:29:24;2.43;;;1.40;;
7150;SDS011;3617;48.836;9.172;2023-12-20T09:31:50;1.70;;;1.10;;
7150;SDS011;3617;48.836;9.172;2023-12-20T09:34:16;1.97;;;1.30;;
7150;SDS011;3617;48.836;9.172;2023-12-20T09:36:42;1.83;;;1.10;;
7150;SDS011;3617;48.836;9.172;2023-12-20T09:39:15;1.13;;;0.97;;
7150;SDS011;3617;48.836;9.172;2023-12-20T09:41:45;1.08;;;1.00;;
7150;SDS011;3617;48.836;9.172;2023-12-20T09:44:15;1.73;;;1.15;;
7150;SDS011;3617;48.836;9.172;2023-12-20T09:46:43;1.33;;;1.00;;
7150;SDS011;3617;48.836;9.172;2023-12-20T09:49:10;1.33;;;1.00;;
7150;SDS011;3617;48.836;9.172;2023-12-20T09:51:36;2.13;;;0.70;;
7150;SDS011;3617;48.836;9.172;2023-12-20T09:54:05;3.47;;;0.88;;
7150;SDS011;3617;48.836;9.172;2023-12-20T09:56:31;1.10;;;0.70;;
7150;SDS011;3617;48.836;9.172;2023-12-20T09:58:57;1.60;;;1.15;;
7150;SDS011;3617;48.836;9.172;2023-12-20T10:01:23;1.25;;;0.77;;
7150;SDS011;3617;48.836;9.172;2023-12-20T10:03:50;3.38;;;0.88;;
7150;SDS011;3617;48.836;9.172;2023-12-20T10:06:17;1.33;;;1.15;;
7150;SDS011;3617;48.836;9.172;2023-12-20T10:08:43;2.40;;;0.85;;
7150;SDS011;3617;48.836;9.172;2023-12-20T10:11:09;0.95;;;0.80;;
7150;SDS011;3617;48.836;9.172;2023-12-20T10:13:38;3.00;;;1.10;;
7150;SDS011;3617;48.836;9.172;2023-12-20T10:16:05;2.13;;;1.10;;
7150;SDS011;3617;48.836;9.172;2023-12-20T10:18:32;2.90;;;0.90;;
7150;SDS011;3617;48.836;9.172;2023-12-20T10:20:58;1.37;;;0.80;;
7150;SDS011;3617;48.836;9.172;2023-12-20T10:23:25;2.37;;;1.00;;
7150;SDS011;3617;48.836;9.172;2023-12-20T10:25:58;0.87;;;0.87;;
7150;SDS011;3617;48.836;9.172;2023-12-20T10:28:25;5.50;;;0.90;;
7150;SDS011;3617;48.836;9.172;2023-12-20T10:30:52;0.90;;;0.90;;
7150;SDS011;3617;48.836;9.172;2023-12-20T10:33:31;1.13;;;0.90;;
7150;SDS011;3617;48.836;9.172;2023-12-20T10:35:57;1.00;;;1.00;;
7150;SDS011;3617;48.836;9.172;2023-12-20T10:38:23;1.27;;;1.07;;
7150;SDS011;3617;48.836;9.172;2023-12-20T10:40:49;1.00;;;0.90;;
7150;SDS011;3617;48.836;9.172;2023-12-20T10:43:17;1.43;;;1.13;;
7150;SDS011;3617;48.836;9.172;2023-12-20T10:45:44;1.20;;;1.10;;
7150;SDS011;3617;48.836;9.172;2023-12-20T10:48:10;2.20;;;1.27;;
7150;SDS011;3617;48.836;9.172;2023-12-20T10:50:39;1.63;;;1.07;;
7150;SDS011;3617;48.836;9.172;2023-12-20T10:53:06;1.47;;;0.90;;
7150;SDS011;3617;48.836;9.172;2023-12-20T10:55:33;3.30;;;1.10;;
7150;SDS011;3617;48.836;9.172;2023-12-20T10:58:03;0.77;;;0.77;;
7150;SDS011;3617;48.836;9.172;2023-12-20T11:00:32;1.90;;;1.00;;
7150;SDS011;3617;48.836;9.172;2023-12-20T11:03:00;0.80;;;0.80;;
7150;SDS011;3617;48.836;9.172;2023-12-20T11:08:01;2.40;;;0.90;;
7150;SDS011;3617;48.836;9.172;2023-12-20T11:10:30;1.57;;;0.80;;
7150;SDS011;3617;48.836;9.172;2023-12-20T11:13:08;0.77;;;0.70;;
7150;SDS011;3617;48.836;9.172;2023-12-20T11:15:36;1.03;;;0.80;;
7150;SDS011;3617;48.836;9.172;2023-12-20T11:18:03;3.83;;;1.23;;
7150;SDS011;3617;48.836;9.172;2023-12-20T11:20:39;2.17;;;1.20;;
7150;SDS011;3617;48.836;9.172;2023-12-20T11:23:05;0.80;;;0.80;;
7150;SDS011;3617;48.836;9.172;2023-12-20T11:28:16;1.83;;;1.13;;
7150;SDS011;3617;48.836;9.172;2023-12-20T11:30:46;4.63;;;1.00;;
7150;SDS011;3617;48.836;9.172;2023-12-20T11:33:13;3.13;;;1.33;;
7150;SDS011;3617;48.836;9.172;2023-12-20T11:35:40;4.80;;;1.00;;
7150;SDS011;3617;48.836;9.172;2023-12-20T11:38:09;2.13;;;1.07;;
7150;SDS011;3617;48.836;9.172;2023-12-20T11:40:36;1.07;;;1.03;;
7150;SDS011;3617;48.836;9.172;2023-12-20T11:43:02;1.83;;;1.00;;
7150;SDS011;3617;48.836;9.172;2023-12-20T11:45:30;1.30;;;1.20;;
7150;SDS011;3617;48.836;9.172;2023-12-20T11:47:57;2.13;;;1.40;;
7150;SDS011;3617;48.836;9.172;2023-12-20T11:50:23;0.80;;;0.80;;
7150;SDS011;3617;48.836;9.172;2023-12-20T11:52:50;1.67;;;1.10;;
7150;SDS011;3617;48.836;9.172;2023-12-20T11:55:17;12.93;;;1.20;;
7150;SDS011;3617;48.836;9.172;2023-12-20T11:57:43;1.80;;;1.00;;
7150;SDS011;3617;48.836;9.172;2023-12-20T12:00:10;3.93;;;1.10;;
7150;SDS011;3617;48.836;9.172;2023-12-20T12:02:36;2.80;;;1.10;;
7150;SDS011;3617;48.836;9.172;2023-12-20T12:05:02;2.87;;;1.20;;
7150;SDS011;3617;48.836;9.172;2023-12-20T12:07:30;1.57;;;1.00;;
7150;SDS011;3617;48.836;9.172;2023-12-20T12:09:56;1.97;;;1.00;;
7150;SDS011;3617;48.836;9.172;2023-12-20T12:12:23;3.13;;;1.33;;
7150;SDS011;3617;48.836;9.172;2023-12-20T12:14:50;3.37;;;1.03;;
7150;SDS011;3617;48.836;9.172;2023-12-20T12:17:16;1.47;;;1.30;;
7150;SDS011;3617;48.836;9.172;2023-12-20T12:19:42;1.50;;;1.20;;
7150;SDS011;3617;48.836;9.172;2023-12-20T12:22:09;1.43;;;1.33;;
7150;SDS011;3617;48.836;9.172;2023-12-20T12:24:41;1.20;;;1.10;;
7150;SDS011;3617;48.836;9.172;2023-12-20T12:27:07;1.17;;;1.00;;
7150;SDS011;3617;48.836;9.172;2023-12-20T12:29:34;1.57;;;0.83;;
7150;SDS011;3617;48.836;9.172;2023-12-20T12:32:00;1.10;;;1.00;;
7150;SDS011;3617;48.836;9.172;2023-12-20T12:34:27;2.07;;;1.00;;
7150;SDS011;3617;48.836;9.172;2023-12-20T12:36:53;1.00;;;0.90;;
7150;SDS011;3617;48.836;9.172;2023-12-20T12:39:19;1.83;;;1.00;;
7150;SDS011;3617;48.836;9.172;2023-12-20T12:41:45;1.63;;;1.17;;
7150;SDS011;3617;48.836;9.172;2023-12-20T12:44:11;1.53;;;0.80;;
7150;SDS011;3617;48.836;9.172;2023-12-20T12:46:37;1.33;;;1.07;;
7150;SDS011;3617;48.836;9.172;2023-12-20T12:49:03;2.50;;;0.83;;
7150;SDS011;3617;48.836;9.172;2023-12-20T12:51:29;0.93;;;0.70;;
7150;SDS011;3617;48.836;9.172;2023-12-20T12:53:56;3.30;;;1.20;;
7150;SDS011;3617;48.836;9.172;2023-12-20T12:56:22;1.20;;;1.00;;
7150;SDS011;3617;48.836;9.172;2023-12-20T12:58:48;1.73;;;1.30;;
7150;SDS011;3617;48.836;9.172;2023-12-20T13:01:14;1.03;;;0.87;;
7150;SDS011;3617;48.836;9.172;2023-12-20T13:03:40;1.10;;;1.00;;
7150;SDS011;3617;48.836;9.172;2023-12-20T13:06:06;0.87;;;0.87;;
7150;SDS011;3617;48.836;9.172;2023-12-20T13:08:33;0.70;;;0.70;;
7150;SDS011;3617;48.836;9.172;2023-12-20T13:11:00;1.07;;;0.97;;
7150;SDS011;3617;48.836;9.172;2023-12-20T13:13:29;2.00;;;0.70;;
7150;SDS011;3617;48.836;9.172;2023-12-20T13:15:55;1.43;;;1.07;;
7150;SDS011;3617;48.836;9.172;2023-12-20T13:18:22;2.13;;;1.00;;
7150;SDS011;3617;48.836;9.172;2023-12-20T13:20:48;2.13;;;1.07;;
7150;SDS011;3617;48.836;9.172;2023-12-20T13:23:14;5.03;;;1.17;;
7150;SDS011;3617;48.836;9.172;2023-12-20T13:25:40;3.37;;;1.20;;
7150;SDS011;3617;48.836;9.172;2023-12-20T13:28:06;2.50;;;1.10;;
7150;SDS011;3617;48.836;9.172;2023-12-20T13:30:33;0.80;;;0.80;;
7150;SDS011;3617;48.836;9.172;2023-12-20T13:32:59;0.60;;;0.60;;
7150;SDS011;3617;48.836;9.172;2023-12-20T13:35:25;1.10;;;1.00;;
7150;SDS011;3617;48.836;9.172;2023-12-20T13:37:51;2.27;;;0.90;;
7150;SDS011;3617;48.836;9.172;2023-12-20T13:40:17;1.53;;;0.83;;
7150;SDS011;3617;48.836;9.172;2023-12-20T13:42:43;2.93;;;1.20;;
7150;SDS011;3617;48.836;9.172;2023-12-20T13:45:10;0.87;;;0.80;;
7150;SDS011;3617;48.836;9.172;2023-12-20T13:47:36;1.33;;;0.80;;
7150;SDS011;3617;48.836;9.172;2023-12-20T13:50:02;1.10;;;1.00;;
7150;SDS011;3617;48.836;9.172;2023-12-20T13:52:29;0.80;;;0.80;;
7150;SDS011;3617;48.836;9.172;2023-12-20T13:54:55;1.47;;;1.10;;
7150;SDS011;3617;48.836;9.172;2023-12-20T13:57:21;1.10;;;1.00;;
7150;SDS011;3617;48.836;9.172;2023-12-20T13:59:47;0.80;;;0.80;;
7150;SDS011;3617;48.836;9.172;2023-12-20T14:02:13;0.83;;;0.83;;
7150;SDS011;3617;48.836;9.172;2023-12-20T14:04:40;3.23;;;1.40;;
7150;SDS011;3617;48.836;9.172;2023-12-20T14:07:06;1.93;;;0.83;;
7150;SDS011;3617;48.836;9.172;2023-12-20T14:09:32;2.50;;;1.10;;
7150;SDS011;3617;48.836;9.172;2023-12-20T14:11:58;2.27;;;0.90;;
7150;SDS011;3617;48.836;9.172;2023-12-20T14:14:24;1.13;;;1.00;;
7150;SDS011;3617;48.836;9.172;2023-12-20T14:16:50;0.90;;;0.90;;
7150;SDS011;3617;48.836;9.172;2023-12-20T14:19:16;1.30;;;1.20;;
7150;SDS011;3617;48.836;9.172;2023-12-20T14:21:42;5.10;;;1.67;;
7150;SDS011;3617;48.836;9.172;2023-12-20T14:24:11;2.07;;;1.20;;
7150;SDS011;3617;48.836;9.172;2023-12-20T14:26:38;1.47;;;1.20;;
7150;SDS011;3617;48.836;9.172;2023-12-20T14:29:04;1.20;;;1.10;;
7150;SDS011;3617;48.836;9.172;2023-12-20T14:31:32;2.37;;;1.20;;
7150;SDS011;3617;48.836;9.172;2023-12-20T14:34:01;1.07;;;1.07;;
7150;SDS011;3617;48.836;9.172;2023-12-20T14:36:29;1.47;;;1.10;;
7150;SDS011;3617;48.836;9.172;2023-12-20T14:38:58;2.63;;;1.30;;
7150;SDS011;3617;48.836;9.172;2023-12-20T14:41:24;1.87;;;1.23;;
7150;SDS011;3617;48.836;9.172;2023-12-20T14:43:50;2.57;;;1.27;;
7150;SDS011;3617;48.836;9.172;2023-12-20T14:46:18;1.20;;;1.10;;
7150;SDS011;3617;48.836;9.172;2023-12-20T14:48:44;1.07;;;0.97;;
7150;SDS011;3617;48.836;9.172;2023-12-20T14:51:10;1.67;;;1.20;;
7150;SDS011;3617;48.836;9.172;2023-12-20T14:53:36;1.17;;;1.07;;
7150;SDS011;3617;48.836;9.172;2023-12-20T14:56:03;1.20;;;1.20;;
7150;SDS011;3617;48.836;9.172;2023-12-20T14:58:29;5.10;;;1.30;;
7150;SDS011;3617;48.836;9.172;2023-12-20T15:00:56;1.90;;;1.10;;
7150;SDS011;3617;48.836;9.172;2023-12-20T15:03:22;1.07;;;0.93;;
7150;SDS011;3617;48.836;9.172;2023-12-20T15:05:48;0.90;;;0.90;;
7150;SDS011;3617;48.836;9.172;2023-12-20T15:08:15;1.10;;;1.00;;
7150;SDS011;3617;48.836;9.172;2023-12-20T15:10:41;2.50;;;0.93;;
7150;SDS011;3617;48.836;9.172;2023-12-20T15:13:10;1.97;;;1.20;;
7150;SDS011;3617;48.836;9.172;2023-12-20T15:15:37;1.80;;;1.23;;